Time;durP1;ratioP1;P1;durP2;ratioP2;P2;SDS_P1;SDS_P2;PMS_P1;PMS_P2;Temp;Humidity;BMP_temperature;BMP_pressure;BME280_temperature;BME280_humidity;BME280_pressure;Samples;Min_cycle;Max_cycle;Signal;HPM_P1;HPM_P2
2023/10/15 00:01:05;;;;;;;1.70;0.73;;;;;;;;;;5006656;28;20926;-71
2023/10/15 00:03:33;;;;;;;2.23;1.13;;;;;;;;;;5009420;28;20444;-72
2023/10/15 00:06:00;;;;;;;2.83;1.07;;;;;;;;;;4997918;28;20480;-72
2023/10/15 00:08:27;;;;;;;2.10;1.13;;;;;;;;;;5000915;28;20543;-72
2023/10/15 00:10:54;;;;;;;2.27;0.90;;;;;;;;;;4997226;28;20960;-72
2023/10/15 00:13:21;;;;;;;3.20;1.13;;;;;;;;;;4995409;28;20865;-72
2023/10/15 00:15:51;;;;;;;2.30;1.03;;;;;;;;;;5006357;28;20474;-72
2023/10/15 00:18:18;;;;;;;1.80;0.83;;;;;;;;;;4998714;28;20951;-72
2023/10/15 00:20:47;;;;;;;2.13;1.00;;;;;;;;;;5007591;28;20451;-71
2023/10/15 00:23:18;;;;;;;2.20;0.80;;;;;;;;;;4989059;28;20462;-71
2023/10/15 00:25:48;;;;;;;1.60;0.70;;;;;;;;;;4995743;28;20469;-72
2023/10/15 00:28:16;;;;;;;1.90;1.10;;;;;;;;;;5007891;28;20463;-72
2023/10/15 00:30:44;;;;;;;2.57;1.20;;;;;;;;;;4996344;28;20487;-72
2023/10/15 00:33:14;;;;;;;1.60;0.67;;;;;;;;;;5001030;28;20880;-71
2023/10/15 00:35:55;;;;;;;2.80;1.10;;;;;;;;;;5007590;28;20467;-72
2023/10/15 00:38:24;;;;;;;3.50;1.00;;;;;;;;;;5009899;28;20452;-72
2023/10/15 00:40:52;;;;;;;1.60;0.80;;;;;;;;;;4985808;28;20503;-72
2023/10/15 00:43:19;;;;;;;2.87;0.90;;;;;;;;;;5014903;28;20475;-71
2023/10/15 00:45:47;;;;;;;2.43;1.03;;;;;;;;;;5014528;28;20456;-72
2023/10/15 00:48:22;;;;;;;1.73;0.87;;;;;;;;;;5004869;28;20464;-72
2023/10/15 00:50:51;;;;;;;3.00;1.00;;;;;;;;;;5010843;28;20448;-72
2023/10/15 00:53:28;;;;;;;2.15;0.60;;;;;;;;;;5350573;22;20486;-69
2023/10/15 00:56:00;;;;;;;3.13;0.83;;;;;;;;;;4994446;28;20489;-68
2023/10/15 00:58:34;;;;;;;1.80;0.63;;;;;;;;;;5006367;28;20520;-68
2023/10/15 01:01:13;;;;;;;2.27;0.70;;;;;;;;;;5008518;28;20511;-67
2023/10/15 01:03:48;;;;;;;1.60;0.80;;;;;;;;;;5007078;28;20441;-67
2023/10/15 01:06:18;;;;;;;2.40;1.30;;;;;;;;;;4995275;28;20466;-67
2023/10/15 01:08:47;;;;;;;2.37;1.00;;;;;;;;;;4999155;28;20994;-67
2023/10/15 01:11:15;;;;;;;2.13;0.80;;;;;;;;;;4998949;28;20834;-67
2023/10/15 01:13:42;;;;;;;2.60;1.07;;;;;;;;;;4995888;28;20477;-67
2023/10/15 01:16:13;;;;;;;2.03;0.97;;;;;;;;;;4998935;28;20727;-67
2023/10/15 01:18:42;;;;;;;5.50;1.30;;;;;;;;;;5004981;28;20962;-68
2023/10/15 01:21:13;;;;;;;1.67;0.70;;;;;;;;;;5010068;28;20451;-67
2023/10/15 01:24:04;;;;;;;4.40;0.80;;;;;;;;;;4994465;28;20456;-67
2023/10/15 01:26:36;;;;;;;2.43;1.00;;;;;;;;;;4988234;28;20503;-67
2023/10/15 01:29:05;;;;;;;7.40;1.20;;;;;;;;;;5004447;28;20476;-67
2023/10/15 01:31:39;;;;;;;1.73;0.90;;;;;;;;;;5008373;28;20452;-67
2023/10/15 01:34:09;;;;;;;2.93;0.87;;;;;;;;;;4999487;28;20516;-67
2023/10/15 01:36:38;;;;;;;1.97;1.07;;;;;;;;;;5006996;28;20475;-67
2023/10/15 01:39:09;;;;;;;4.03;0.90;;;;;;;;;;4993962;28;20532;-68
2023/10/15 01:41:39;;;;;;;2.37;0.80;;;;;;;;;;4993542;28;20445;-68
2023/10/15 01:44:07;;;;;;;2.00;0.90;;;;;;;;;;4993598;28;20469;-68
2023/10/15 01:46:45;;;;;;;1.87;0.93;;;;;;;;;;4998074;28;20654;-67
2023/10/15 01:49:26;;;;;;;1.93;0.70;;;;;;;;;;4979433;28;20873;-67
2023/10/15 01:51:55;;;;;;;5.90;1.10;;;;;;;;;;5003101;28;20459;-67
2023/10/15 01:54:22;;;;;;;2.73;0.80;;;;;;;;;;4992438;28;20820;-69
2023/10/15 01:56:50;;;;;;;1.67;0.83;;;;;;;;;;4993688;28;20445;-67
2023/10/15 01:59:17;;;;;;;1.63;0.63;;;;;;;;;;4991634;28;20579;-67
2023/10/15 02:01:49;;;;;;;1.53;0.70;;;;;;;;;;5000691;28;20464;-67
2023/10/15 02:04:19;;;;;;;1.60;0.70;;;;;;;;;;4994771;28;20484;-67
2023/10/15 02:06:46;;;;;;;1.60;0.60;;;;;;;;;;4992874;28;20512;-67
2023/10/15 02:09:19;;;;;;;2.00;0.60;;;;;;;;;;4995971;28;20452;-67
2023/10/15 02:11:48;;;;;;;3.00;0.90;;;;;;;;;;5002435;28;20575;-67
2023/10/15 02:14:22;;;;;;;2.83;0.60;;;;;;;;;;4996644;28;20519;-67
2023/10/15 02:16:50;;;;;;;1.60;0.70;;;;;;;;;;5000750;28;20547;-67
2023/10/15 02:19:28;;;;;;;1.50;0.90;;;;;;;;;;4996581;28;20555;-67
2023/10/15 02:21:56;;;;;;;2.17;1.03;;;;;;;;;;4996037;28;20519;-67
2023/10/15 02:24:24;;;;;;;1.67;0.70;;;;;;;;;;4991496;28;20477;-67
2023/10/15 02:26:51;;;;;;;3.33;1.00;;;;;;;;;;4999705;28;20940;-67
2023/10/15 02:29:34;;;;;;;3.03;1.00;;;;;;;;;;4996835;28;20456;-67
2023/10/15 02:32:08;;;;;;;2.13;0.80;;;;;;;;;;5003782;28;20459;-67
2023/10/15 02:34:40;;;;;;;1.90;0.73;;;;;;;;;;4995266;28;20480;-67
2023/10/15 02:37:10;;;;;;;1.50;0.60;;;;;;;;;;4998420;28;20483;-67
2023/10/15 02:39:39;;;;;;;2.10;0.73;;;;;;;;;;5004778;28;20444;-67
2023/10/15 02:42:07;;;;;;;2.20;0.90;;;;;;;;;;4999850;28;20457;-67
2023/10/15 02:44:38;;;;;;;2.57;0.70;;;;;;;;;;4993047;28;21069;-67
2023/10/15 02:47:10;;;;;;;1.50;0.60;;;;;;;;;;4989682;28;20445;-67
2023/10/15 02:49:52;;;;;;;1.70;0.70;;;;;;;;;;4997102;28;20444;-67
2023/10/15 02:52:19;;;;;;;3.33;0.77;;;;;;;;;;5004522;28;20463;-67
2023/10/15 02:54:46;;;;;;;1.90;0.77;;;;;;;;;;4987370;28;20971;-67
2023/10/15 02:57:15;;;;;;;2.57;0.97;;;;;;;;;;4992293;28;20836;-68
2023/10/15 02:59:52;;;;;;;2.40;0.63;;;;;;;;;;4995649;28;20463;-67
2023/10/15 03:02:19;;;;;;;1.40;0.53;;;;;;;;;;5002395;28;20448;-67
2023/10/15 03:04:51;;;;;;;2.40;0.80;;;;;;;;;;4995149;28;20527;-68
2023/10/15 03:07:19;;;;;;;2.40;0.70;;;;;;;;;;4991483;28;20810;-67
2023/10/15 03:09:48;;;;;;;3.70;0.70;;;;;;;;;;4997905;28;20499;-67
2023/10/15 03:12:15;;;;;;;2.00;0.87;;;;;;;;;;4999341;28;20515;-67
2023/10/15 03:14:42;;;;;;;2.37;0.80;;;;;;;;;;5004176;28;20480;-66
2023/10/15 03:17:14;;;;;;;1.60;0.70;;;;;;;;;;4999161;28;20475;-67
2023/10/15 03:19:41;;;;;;;1.50;0.50;;;;;;;;;;5003126;28;20547;-66
2023/10/15 03:22:12;;;;;;;2.47;0.80;;;;;;;;;;5003191;28;20460;-67
2023/10/15 03:24:43;;;;;;;1.70;0.70;;;;;;;;;;4993894;28;20551;-67
2023/10/15 03:27:11;;;;;;;1.60;0.70;;;;;;;;;;4993656;28;20508;-67
2023/10/15 03:29:39;;;;;;;3.43;0.53;;;;;;;;;;4996612;28;20460;-67
2023/10/15 03:32:09;;;;;;;1.40;0.50;;;;;;;;;;5003952;28;20543;-67
2023/10/15 03:34:42;;;;;;;2.00;1.03;;;;;;;;;;4996798;28;20576;-68
2023/10/15 03:37:13;;;;;;;3.97;1.27;;;;;;;;;;4994706;28;20491;-68
2023/10/15 03:39:55;;;;;;;1.60;0.50;;;;;;;;;;5006076;28;20471;-68
2023/10/15 03:42:26;;;;;;;1.53;0.60;;;;;;;;;;4991215;28;20429;-68
2023/10/15 03:44:59;;;;;;;1.70;0.80;;;;;;;;;;5008041;28;20570;-68
2023/10/15 03:47:26;;;;;;;2.23;0.70;;;;;;;;;;4999508;28;20463;-69
2023/10/15 03:49:56;;;;;;;4.17;1.10;;;;;;;;;;5003240;28;20487;-67
2023/10/15 03:52:26;;;;;;;3.03;0.70;;;;;;;;;;4998280;28;20876;-67
2023/10/15 03:54:55;;;;;;;2.83;1.17;;;;;;;;;;5008638;28;20499;-67
2023/10/15 03:57:23;;;;;;;3.40;0.93;;;;;;;;;;5002904;28;20456;-67
2023/10/15 03:59:52;;;;;;;3.70;0.80;;;;;;;;;;5011452;28;20475;-68
2023/10/15 04:02:31;;;;;;;1.80;0.87;;;;;;;;;;4997695;28;20453;-67
2023/10/15 04:05:08;;;;;;;9.23;0.90;;;;;;;;;;5003231;28;20463;-67
2023/10/15 04:07:39;;;;;;;1.50;0.63;;;;;;;;;;5005751;28;20460;-67
2023/10/15 04:10:06;;;;;;;1.60;0.70;;;;;;;;;;5013513;28;20467;-67
2023/10/15 04:12:35;;;;;;;2.17;0.90;;;;;;;;;;5011147;28;20499;-67
2023/10/15 04:15:12;;;;;;;1.90;0.70;;;;;;;;;;5004090;28;20480;-67
2023/10/15 04:17:39;;;;;;;1.77;0.70;;;;;;;;;;4996848;28;20551;-67
2023/10/15 04:20:09;;;;;;;1.60;0.70;;;;;;;;;;5000054;28;20499;-67
2023/10/15 04:22:43;;;;;;;3.20;0.90;;;;;;;;;;4997148;28;20539;-69
2023/10/15 04:25:23;;;;;;;1.40;0.50;;;;;;;;;;4997101;28;20471;-69
2023/10/15 04:27:50;;;;;;;2.47;1.07;;;;;;;;;;4987690;28;20456;-68
2023/10/15 04:30:17;;;;;;;1.80;0.70;;;;;;;;;;4987198;28;20449;-68
2023/10/15 04:32:46;;;;;;;2.27;0.60;;;;;;;;;;5000299;28;20512;-68
2023/10/15 04:35:18;;;;;;;2.83;1.00;;;;;;;;;;4989595;28;20489;-68
2023/10/15 04:37:48;;;;;;;7.30;1.00;;;;;;;;;;4990134;28;20880;-68
2023/10/15 04:40:22;;;;;;;1.70;0.53;;;;;;;;;;4987543;28;20458;-67
2023/10/15 04:42:49;;;;;;;1.40;0.60;;;;;;;;;;4995253;28;20440;-67
2023/10/15 04:45:23;;;;;;;1.53;0.80;;;;;;;;;;4997439;28;20870;-67
2023/10/15 04:47:54;;;;;;;2.30;1.03;;;;;;;;;;4991542;28;20452;-68
2023/10/15 04:50:26;;;;;;;1.40;0.50;;;;;;;;;;4990091;28;20452;-68
2023/10/15 04:52:53;;;;;;;1.70;1.20;;;;;;;;;;4996690;28;20955;-68
2023/10/15 04:55:21;;;;;;;1.57;0.70;;;;;;;;;;4986936;28;20495;-68
2023/10/15 04:57:48;;;;;;;3.73;0.80;;;;;;;;;;4985407;28;20460;-68
2023/10/15 05:00:25;;;;;;;1.40;0.50;;;;;;;;;;4984730;28;20445;-68
2023/10/15 05:02:52;;;;;;;1.53;0.67;;;;;;;;;;4986635;28;20481;-68
2023/10/15 05:05:19;;;;;;;3.30;0.87;;;;;;;;;;5001401;28;20473;-68
2023/10/15 05:07:48;;;;;;;1.80;0.87;;;;;;;;;;4991860;28;20460;-68
2023/10/15 05:10:15;;;;;;;1.90;0.70;;;;;;;;;;4999120;28;20453;-68
2023/10/15 05:12:42;;;;;;;1.60;0.60;;;;;;;;;;4992470;28;20455;-68
2023/10/15 05:15:13;;;;;;;2.30;0.90;;;;;;;;;;5004059;28;20490;-67
2023/10/15 05:17:42;;;;;;;2.20;0.90;;;;;;;;;;4999667;28;20468;-67
2023/10/15 05:20:13;;;;;;;2.00;0.57;;;;;;;;;;4986546;28;20458;-68
2023/10/15 05:22:40;;;;;;;3.20;0.80;;;;;;;;;;5001427;28;20496;-67
2023/10/15 05:25:17;;;;;;;9.63;1.23;;;;;;;;;;4996028;28;20473;-67
2023/10/15 05:27:44;;;;;;;4.67;0.90;;;;;;;;;;4988742;28;20481;-67
2023/10/15 05:30:12;;;;;;;1.60;0.90;;;;;;;;;;4988699;28;20454;-67
2023/10/15 05:32:39;;;;;;;2.47;0.87;;;;;;;;;;4981075;28;20446;-68
2023/10/15 05:35:08;;;;;;;3.93;0.73;;;;;;;;;;4977991;28;20497;-67
2023/10/15 05:37:36;;;;;;;1.53;0.80;;;;;;;;;;4985898;28;20448;-67
2023/10/15 05:40:03;;;;;;;2.67;1.13;;;;;;;;;;4985494;28;20940;-68
2023/10/15 05:42:32;;;;;;;5.30;1.47;;;;;;;;;;4981964;28;20446;-67
2023/10/15 05:45:00;;;;;;;2.03;0.93;;;;;;;;;;5000318;28;20555;-67
2023/10/15 05:47:27;;;;;;;2.30;0.90;;;;;;;;;;4997077;28;20456;-67
2023/10/15 05:49:54;;;;;;;3.90;0.90;;;;;;;;;;4992232;28;20452;-68
2023/10/15 05:52:22;;;;;;;1.80;0.80;;;;;;;;;;4999278;28;20448;-68
2023/10/15 05:54:51;;;;;;;1.60;0.70;;;;;;;;;;4999400;28;20506;-67
2023/10/15 05:57:18;;;;;;;2.80;0.73;;;;;;;;;;4985974;28;20472;-68
2023/10/15 05:59:48;;;;;;;3.47;1.10;;;;;;;;;;4992198;28;20450;-68
2023/10/15 06:02:15;;;;;;;2.30;0.90;;;;;;;;;;4993769;28;20465;-67
2023/10/15 06:04:43;;;;;;;1.90;0.50;;;;;;;;;;5004658;28;20499;-68
2023/10/15 06:07:10;;;;;;;3.33;1.20;;;;;;;;;;4997376;28;20540;-68
2023/10/15 06:09:37;;;;;;;2.60;0.80;;;;;;;;;;4991679;28;20470;-67
2023/10/15 06:12:05;;;;;;;1.93;0.60;;;;;;;;;;4998069;28;20451;-68
2023/10/15 06:14:32;;;;;;;1.60;0.60;;;;;;;;;;5000400;28;20472;-68
2023/10/15 06:17:01;;;;;;;1.50;0.70;;;;;;;;;;4992176;28;20484;-68
2023/10/15 06:19:29;;;;;;;2.40;0.90;;;;;;;;;;4989517;28;20465;-68
2023/10/15 06:21:57;;;;;;;1.60;0.73;;;;;;;;;;4988091;28;20456;-68
2023/10/15 06:24:24;;;;;;;2.10;0.70;;;;;;;;;;4995976;28;20579;-68
2023/10/15 06:26:52;;;;;;;1.37;0.50;;;;;;;;;;4985316;28;20528;-68
2023/10/15 06:29:19;;;;;;;1.97;0.90;;;;;;;;;;4991760;28;20835;-67
2023/10/15 06:31:46;;;;;;;2.93;1.93;;;;;;;;;;4987591;28;20840;-67
2023/10/15 06:34:15;;;;;;;1.60;0.70;;;;;;;;;;5005597;28;20480;-68
2023/10/15 06:36:43;;;;;;;1.93;0.90;;;;;;;;;;4989787;28;20488;-67
2023/10/15 06:39:10;;;;;;;2.40;1.00;;;;;;;;;;4988633;28;20468;-65
2023/10/15 06:41:37;;;;;;;2.47;1.47;;;;;;;;;;4986022;28;20450;-66
2023/10/15 06:44:04;;;;;;;6.60;1.07;;;;;;;;;;4987985;28;20531;-65
2023/10/15 06:46:33;;;;;;;2.17;1.00;;;;;;;;;;4991737;28;20979;-66
2023/10/15 06:49:00;;;;;;;1.57;0.63;;;;;;;;;;4994695;28;20476;-65
2023/10/15 06:51:28;;;;;;;2.53;1.07;;;;;;;;;;4994863;28;20459;-65
2023/10/15 06:53:55;;;;;;;1.60;0.60;;;;;;;;;;4992965;28;20489;-65
2023/10/15 06:56:22;;;;;;;2.47;0.90;;;;;;;;;;4987376;28;20477;-64
2023/10/15 06:58:49;;;;;;;8.50;1.03;;;;;;;;;;4994114;28;20533;-65
2023/10/15 07:01:16;;;;;;;3.00;0.90;;;;;;;;;;4995560;28;20449;-65
2023/10/15 07:03:44;;;;;;;2.00;1.07;;;;;;;;;;4989667;28;20491;-67
2023/10/15 07:06:11;;;;;;;2.77;1.33;;;;;;;;;;4997473;28;20444;-65
2023/10/15 07:08:39;;;;;;;1.60;0.90;;;;;;;;;;4993646;28;20519;-65
2023/10/15 07:11:06;;;;;;;1.70;0.80;;;;;;;;;;4995626;28;20448;-65
2023/10/15 07:13:34;;;;;;;3.00;1.20;;;;;;;;;;4988817;28;20882;-65
2023/10/15 07:16:01;;;;;;;1.97;1.07;;;;;;;;;;5001176;28;20494;-66
2023/10/15 07:18:32;;;;;;;2.17;1.00;;;;;;;;;;4999181;28;20456;-65
2023/10/15 07:20:59;;;;;;;1.60;0.70;;;;;;;;;;4994135;28;20448;-65
2023/10/15 07:23:27;;;;;;;2.50;1.43;;;;;;;;;;4985503;28;20446;-65
2023/10/15 07:25:55;;;;;;;2.50;1.20;;;;;;;;;;4999542;28;20469;-65
2023/10/15 07:28:22;;;;;;;3.10;1.20;;;;;;;;;;4991910;28;20604;-65
2023/10/15 07:30:50;;;;;;;2.37;1.10;;;;;;;;;;4989619;28;20499;-65
2023/10/15 07:33:17;;;;;;;2.10;1.33;;;;;;;;;;5003349;28;20456;-65
2023/10/15 07:35:46;;;;;;;2.60;0.90;;;;;;;;;;5000131;28;20476;-65
2023/10/15 07:38:13;;;;;;;1.80;1.00;;;;;;;;;;4986728;28;20465;-65
2023/10/15 07:40:40;;;;;;;2.10;1.20;;;;;;;;;;4995980;28;20471;-65
2023/10/15 07:43:09;;;;;;;2.43;1.40;;;;;;;;;;4987202;28;20450;-67
2023/10/15 07:45:38;;;;;;;2.17;1.43;;;;;;;;;;4995782;28;20492;-67
2023/10/15 07:48:07;;;;;;;5.47;1.67;;;;;;;;;;4988651;28;20453;-67
2023/10/15 07:50:35;;;;;;;3.00;1.50;;;;;;;;;;4995481;28;20904;-67
2023/10/15 07:53:03;;;;;;;2.50;1.57;;;;;;;;;;4997607;28;20449;-67
2023/10/15 07:55:31;;;;;;;3.30;1.97;;;;;;;;;;5002671;28;20512;-67
2023/10/15 07:57:58;;;;;;;1.97;0.63;;;;;;;;;;4985097;28;20515;-67
2023/10/15 08:00:29;;;;;;;4.17;1.10;;;;;;;;;;4992592;28;20453;-66
2023/10/15 08:02:58;;;;;;;7.30;0.97;;;;;;;;;;4987250;28;20922;-66
2023/10/15 08:05:25;;;;;;;2.63;1.00;;;;;;;;;;4993938;28;20480;-67
2023/10/15 08:07:53;;;;;;;2.67;1.20;;;;;;;;;;4987627;28;20468;-67
2023/10/15 08:10:21;;;;;;;1.70;1.10;;;;;;;;;;4987963;28;20465;-66
2023/10/15 08:12:49;;;;;;;3.83;0.60;;;;;;;;;;4996879;28;21777;-67
2023/10/15 08:15:16;;;;;;;1.90;0.87;;;;;;;;;;4991210;28;20469;-66
2023/10/15 08:17:46;;;;;;;2.10;0.83;;;;;;;;;;4990413;28;20488;-66
2023/10/15 08:20:13;;;;;;;1.57;0.87;;;;;;;;;;4989831;28;20472;-65
2023/10/15 08:22:41;;;;;;;6.03;0.90;;;;;;;;;;4995424;28;20458;-65
2023/10/15 08:25:13;;;;;;;2.57;1.00;;;;;;;;;;4985994;28;20512;-66
2023/10/15 08:27:41;;;;;;;2.63;0.90;;;;;;;;;;4991716;28;20530;-66
2023/10/15 08:30:12;;;;;;;2.03;0.60;;;;;;;;;;4986509;28;20445;-66
2023/10/15 08:32:40;;;;;;;1.63;0.70;;;;;;;;;;5000891;28;20444;-65
2023/10/15 08:35:09;;;;;;;4.17;0.70;;;;;;;;;;4996423;28;20470;-66
2023/10/15 08:37:37;;;;;;;1.70;0.60;;;;;;;;;;4974308;28;20564;-65
2023/10/15 08:40:05;;;;;;;1.40;0.63;;;;;;;;;;4998260;28;20469;-67
2023/10/15 08:42:34;;;;;;;1.43;0.67;;;;;;;;;;4999819;28;20487;-66
2023/10/15 08:45:04;;;;;;;2.93;0.80;;;;;;;;;;4998788;28;20562;-65
2023/10/15 08:47:33;;;;;;;5.10;1.17;;;;;;;;;;4987741;28;20450;-66
2023/10/15 08:50:00;;;;;;;2.20;1.17;;;;;;;;;;4998212;28;20452;-66
2023/10/15 08:52:30;;;;;;;5.10;0.90;;;;;;;;;;5004055;28;20445;-65
2023/10/15 08:54:59;;;;;;;2.33;0.70;;;;;;;;;;4999728;28;20487;-65
2023/10/15 08:57:26;;;;;;;1.70;0.53;;;;;;;;;;4986982;28;20524;-66
2023/10/15 08:59:53;;;;;;;5.10;0.80;;;;;;;;;;4985171;28;20457;-66
2023/10/15 09:02:20;;;;;;;1.40;0.60;;;;;;;;;;4997835;28;20920;-67
2023/10/15 09:04:47;;;;;;;2.50;0.93;;;;;;;;;;4985813;28;20484;-65
2023/10/15 09:07:15;;;;;;;1.97;0.60;;;;;;;;;;4988291;28;20934;-67
2023/10/15 09:09:43;;;;;;;1.40;0.60;;;;;;;;;;4983044;28;20465;-67
2023/10/15 09:12:12;;;;;;;1.80;0.80;;;;;;;;;;4997964;28;20450;-66
2023/10/15 09:14:40;;;;;;;1.50;0.60;;;;;;;;;;4996320;28;20476;-66
2023/10/15 09:17:09;;;;;;;1.90;0.73;;;;;;;;;;4994769;28;20553;-66
2023/10/15 09:19:36;;;;;;;1.40;0.60;;;;;;;;;;5002074;28;20447;-68
2023/10/15 09:22:05;;;;;;;2.97;0.80;;;;;;;;;;5011956;28;20438;-68
2023/10/15 09:24:32;;;;;;;3.00;0.80;;;;;;;;;;5014025;28;20480;-68
2023/10/15 09:27:01;;;;;;;1.60;0.70;;;;;;;;;;5011378;28;20442;-66
2023/10/15 09:29:30;;;;;;;4.63;0.80;;;;;;;;;;5004016;28;20460;-67
2023/10/15 09:32:02;;;;;;;1.93;0.60;;;;;;;;;;5022319;28;20459;-69
2023/10/15 09:34:30;;;;;;;1.40;0.60;;;;;;;;;;5016643;28;20573;-68
2023/10/15 09:36:58;;;;;;;2.40;0.80;;;;;;;;;;4999087;28;20516;-69
2023/10/15 09:39:27;;;;;;;1.53;0.70;;;;;;;;;;4991215;28;20469;-69
2023/10/15 09:41:55;;;;;;;2.17;0.93;;;;;;;;;;4997478;28;20444;-69
2023/10/15 09:44:24;;;;;;;2.63;0.70;;;;;;;;;;4985157;28;20474;-69
2023/10/15 09:46:51;;;;;;;1.50;0.70;;;;;;;;;;4983740;28;20449;-69
2023/10/15 09:49:18;;;;;;;6.70;1.40;;;;;;;;;;4998566;28;20453;-70
2023/10/15 09:51:48;;;;;;;2.03;0.80;;;;;;;;;;4995226;28;20464;-69
2023/10/15 09:54:19;;;;;;;5.93;0.80;;;;;;;;;;4988432;28;20914;-69
2023/10/15 09:56:47;;;;;;;1.90;0.97;;;;;;;;;;4997018;28;20485;-70
2023/10/15 09:59:15;;;;;;;2.27;0.80;;;;;;;;;;4982789;28;20461;-71
2023/10/15 10:01:46;;;;;;;2.17;1.13;;;;;;;;;;5004057;28;20519;-70
2023/10/15 10:04:27;;;;;;;1.50;0.80;;;;;;;;;;4993536;28;20539;-70
2023/10/15 10:07:07;;;;;;;3.00;1.03;;;;;;;;;;4994869;28;20792;-70
2023/10/15 10:09:46;;;;;;;2.00;0.90;;;;;;;;;;4992602;28;20902;-70
2023/10/15 10:12:26;;;;;;;2.27;1.20;;;;;;;;;;4996830;28;20471;-69
2023/10/15 10:15:01;;;;;;;1.60;0.70;;;;;;;;;;4990411;28;20552;-70
2023/10/15 10:17:30;;;;;;;1.50;0.70;;;;;;;;;;4986787;28;20473;-73
2023/10/15 10:19:57;;;;;;;1.60;0.80;;;;;;;;;;4993501;28;20653;-71
2023/10/15 10:22:25;;;;;;;2.80;1.37;;;;;;;;;;4991134;28;20453;-70
2023/10/15 10:24:52;;;;;;;2.07;0.60;;;;;;;;;;4990819;28;20477;-70
2023/10/15 10:27:19;;;;;;;1.90;0.73;;;;;;;;;;4984693;28;20453;-67
2023/10/15 10:29:51;;;;;;;2.10;0.80;;;;;;;;;;4979097;28;20449;-67
2023/10/15 10:32:20;;;;;;;1.60;0.70;;;;;;;;;;4992613;28;20441;-67
2023/10/15 10:35:10;;;;;;;1.63;0.63;;;;;;;;;;4995065;28;20472;-68
2023/10/15 10:37:37;;;;;;;2.50;0.90;;;;;;;;;;4989157;28;20477;-67
2023/10/15 10:40:12;;;;;;;3.67;0.73;;;;;;;;;;4992285;28;20471;-68
2023/10/15 10:42:40;;;;;;;2.20;1.00;;;;;;;;;;4991703;28;20479;-67
2023/10/15 10:45:12;;;;;;;1.57;0.60;;;;;;;;;;4988848;28;20469;-67
2023/10/15 10:47:40;;;;;;;2.50;1.03;;;;;;;;;;4984982;28;20461;-67
2023/10/15 10:50:09;;;;;;;2.70;0.60;;;;;;;;;;4991531;28;20456;-67
2023/10/15 10:52:36;;;;;;;1.50;0.70;;;;;;;;;;4994066;28;20453;-67
2023/10/15 10:55:22;;;;;;;2.03;0.73;;;;;;;;;;4995573;28;20566;-68
2023/10/15 10:57:52;;;;;;;1.23;0.47;;;;;;;;;;5001845;28;20480;-67
2023/10/15 11:00:19;;;;;;;1.50;0.60;;;;;;;;;;4991229;28;20441;-67
2023/10/15 11:02:47;;;;;;;1.70;0.67;;;;;;;;;;4994559;28;20455;-68
2023/10/15 11:05:17;;;;;;;1.20;0.50;;;;;;;;;;4988803;28;20471;-66
2023/10/15 11:07:46;;;;;;;6.43;1.13;;;;;;;;;;4991665;28;20437;-66
2023/10/15 11:10:13;;;;;;;1.30;0.50;;;;;;;;;;4983933;28;20459;-65
2023/10/15 11:12:40;;;;;;;1.20;0.50;;;;;;;;;;4997726;28;20970;-69
2023/10/15 11:15:09;;;;;;;1.20;0.50;;;;;;;;;;4996526;28;20523;-68
2023/10/15 11:17:36;;;;;;;1.30;0.50;;;;;;;;;;4995450;28;20484;-67
2023/10/15 11:20:04;;;;;;;1.40;0.60;;;;;;;;;;4986636;28;20454;-67
2023/10/15 11:22:33;;;;;;;1.27;0.53;;;;;;;;;;4998315;28;20448;-67
2023/10/15 11:25:00;;;;;;;2.00;0.83;;;;;;;;;;4996866;28;20849;-66
2023/10/15 11:27:27;;;;;;;1.57;0.70;;;;;;;;;;4990340;28;20822;-66
2023/10/15 11:29:54;;;;;;;1.47;0.60;;;;;;;;;;4986797;28;20493;-67
2023/10/15 11:32:22;;;;;;;2.23;0.50;;;;;;;;;;4992834;28;20476;-68
2023/10/15 11:34:49;;;;;;;1.30;0.53;;;;;;;;;;4980975;28;20982;-66
2023/10/15 11:37:16;;;;;;;2.97;1.00;;;;;;;;;;4994710;28;20853;-66
2023/10/15 11:39:47;;;;;;;3.20;0.83;;;;;;;;;;4981126;28;20552;-68
2023/10/15 11:42:15;;;;;;;1.53;0.57;;;;;;;;;;4993907;28;20507;-65
2023/10/15 11:44:45;;;;;;;2.17;0.80;;;;;;;;;;4993389;28;21173;-67
2023/10/15 11:47:15;;;;;;;1.20;0.40;;;;;;;;;;4983488;28;20452;-67
2023/10/15 11:49:43;;;;;;;1.30;0.60;;;;;;;;;;4990651;28;20452;-70
2023/10/15 11:52:14;;;;;;;1.57;0.83;;;;;;;;;;4996058;28;20449;-68
2023/10/15 11:54:43;;;;;;;1.70;0.63;;;;;;;;;;4988453;28;20495;-67
2023/10/15 11:57:16;;;;;;;2.13;0.77;;;;;;;;;;4984000;28;20480;-69
2023/10/15 11:59:43;;;;;;;1.30;0.60;;;;;;;;;;4992195;28;20800;-67
2023/10/15 12:02:11;;;;;;;2.40;0.70;;;;;;;;;;4996830;28;20457;-67
2023/10/15 12:04:38;;;;;;;1.60;0.80;;;;;;;;;;4988987;28;20558;-67
2023/10/15 12:07:06;;;;;;;1.60;0.70;;;;;;;;;;4996448;28;20496;-67
2023/10/15 12:09:39;;;;;;;3.50;0.87;;;;;;;;;;4991051;28;20495;-67
2023/10/15 12:12:07;;;;;;;2.27;0.80;;;;;;;;;;4980356;28;20484;-67
2023/10/15 12:14:36;;;;;;;3.03;1.10;;;;;;;;;;5000168;28;21014;-66
2023/10/15 12:17:04;;;;;;;2.73;0.73;;;;;;;;;;4992331;28;20944;-67
2023/10/15 12:19:31;;;;;;;1.20;0.50;;;;;;;;;;4988223;28;20466;-67
2023/10/15 12:21:59;;;;;;;1.80;0.87;;;;;;;;;;4993185;28;20965;-68
2023/10/15 12:24:26;;;;;;;1.30;0.67;;;;;;;;;;4992644;28;20538;-67
2023/10/15 12:26:53;;;;;;;1.40;0.60;;;;;;;;;;4995873;28;20449;-67
2023/10/15 12:29:28;;;;;;;1.73;1.03;;;;;;;;;;4985413;28;20841;-68
2023/10/15 12:31:57;;;;;;;2.80;0.73;;;;;;;;;;4992055;28;20440;-68
2023/10/15 12:34:24;;;;;;;2.33;1.07;;;;;;;;;;4998376;28;20467;-65
2023/10/15 12:36:52;;;;;;;2.60;0.70;;;;;;;;;;4992630;28;20446;-66
2023/10/15 12:39:26;;;;;;;1.30;0.60;;;;;;;;;;4995270;28;20487;-68
2023/10/15 12:41:54;;;;;;;2.10;0.60;;;;;;;;;;4994309;28;20827;-67
2023/10/15 12:44:22;;;;;;;1.60;0.63;;;;;;;;;;4987721;28;20468;-66
2023/10/15 12:46:50;;;;;;;1.97;1.17;;;;;;;;;;4985640;28;20533;-68
2023/10/15 12:49:19;;;;;;;1.20;0.50;;;;;;;;;;4991601;28;20460;-67
2023/10/15 12:51:46;;;;;;;3.27;0.87;;;;;;;;;;4992866;28;20449;-67
2023/10/15 12:54:13;;;;;;;2.80;1.23;;;;;;;;;;4989864;28;20524;-65
2023/10/15 12:56:40;;;;;;;1.30;0.60;;;;;;;;;;4988874;28;20796;-69
2023/10/15 12:59:07;;;;;;;4.20;0.73;;;;;;;;;;4985183;28;20476;-65
2023/10/15 13:01:34;;;;;;;1.30;0.60;;;;;;;;;;4996278;28;20480;-68
2023/10/15 13:04:01;;;;;;;2.23;0.80;;;;;;;;;;4991612;28;20475;-67
2023/10/15 13:06:30;;;;;;;1.60;0.70;;;;;;;;;;4994479;28;20548;-66
2023/10/15 13:08:57;;;;;;;1.63;0.63;;;;;;;;;;4992326;28;20975;-65
2023/10/15 13:11:24;;;;;;;1.37;0.50;;;;;;;;;;4994739;28;20452;-66
2023/10/15 13:13:51;;;;;;;1.30;0.50;;;;;;;;;;4996204;28;20480;-67
2023/10/15 13:16:18;;;;;;;3.23;0.80;;;;;;;;;;4995535;28;20455;-65
2023/10/15 13:18:46;;;;;;;1.73;0.50;;;;;;;;;;4987191;28;20473;-66
2023/10/15 13:21:14;;;;;;;3.53;0.93;;;;;;;;;;4993551;28;20825;-65
2023/10/15 13:23:42;;;;;;;2.37;0.60;;;;;;;;;;4991421;28;20450;-69
2023/10/15 13:26:09;;;;;;;1.80;0.60;;;;;;;;;;4992953;28;20448;-66
2023/10/15 13:28:36;;;;;;;1.10;0.40;;;;;;;;;;4988700;28;20473;-67
2023/10/15 13:31:05;;;;;;;2.70;0.50;;;;;;;;;;4988050;28;20957;-67
2023/10/15 13:33:33;;;;;;;1.20;0.50;;;;;;;;;;4991927;28;20456;-67
2023/10/15 13:36:01;;;;;;;2.13;0.80;;;;;;;;;;4998126;28;20900;-67
2023/10/15 13:38:28;;;;;;;1.80;0.60;;;;;;;;;;4994114;28;20476;-67
2023/10/15 13:40:56;;;;;;;1.30;0.53;;;;;;;;;;4998376;28;20449;-68
2023/10/15 13:43:24;;;;;;;1.50;0.63;;;;;;;;;;5003347;28;20457;-67
2023/10/15 13:45:52;;;;;;;4.07;0.70;;;;;;;;;;4995862;28;20453;-67
2023/10/15 13:48:20;;;;;;;1.97;0.60;;;;;;;;;;4986112;28;20896;-66
2023/10/15 13:50:48;;;;;;;1.50;0.60;;;;;;;;;;4983388;28;20457;-67
2023/10/15 13:53:15;;;;;;;1.23;0.53;;;;;;;;;;4987307;28;20505;-66
2023/10/15 13:55:42;;;;;;;1.20;0.50;;;;;;;;;;5003144;28;20467;-66
2023/10/15 13:58:10;;;;;;;1.77;0.57;;;;;;;;;;4975238;28;20577;-66
2023/10/15 14:00:38;;;;;;;1.20;0.57;;;;;;;;;;4990392;28;20452;-66
2023/10/15 14:03:07;;;;;;;1.10;0.50;;;;;;;;;;4993117;28;20955;-66
2023/10/15 14:05:36;;;;;;;2.10;0.70;;;;;;;;;;4989745;28;20460;-66
2023/10/15 14:08:04;;;;;;;1.20;0.50;;;;;;;;;;4985891;28;20920;-67
2023/10/15 14:10:31;;;;;;;1.40;0.60;;;;;;;;;;4991898;28;20519;-65
2023/10/15 14:12:58;;;;;;;4.23;0.83;;;;;;;;;;5004518;28;20531;-66
2023/10/15 14:15:27;;;;;;;1.23;0.50;;;;;;;;;;5007652;28;20464;-66
2023/10/15 14:17:54;;;;;;;2.10;0.70;;;;;;;;;;4991458;28;20492;-66
2023/10/15 14:20:21;;;;;;;1.20;0.40;;;;;;;;;;4999689;28;20540;-66
2023/10/15 14:22:50;;;;;;;1.30;0.60;;;;;;;;;;4995749;28;20452;-65
2023/10/15 14:25:18;;;;;;;1.30;0.60;;;;;;;;;;4990999;28;20464;-66
2023/10/15 14:27:45;;;;;;;1.27;0.50;;;;;;;;;;4999343;28;20939;-65
2023/10/15 14:30:12;;;;;;;1.90;0.70;;;;;;;;;;4988028;28;20831;-66
2023/10/15 14:32:40;;;;;;;1.30;0.60;;;;;;;;;;5001124;28;20445;-65
2023/10/15 14:35:09;;;;;;;1.10;0.40;;;;;;;;;;4996606;28;20477;-66
2023/10/15 14:37:38;;;;;;;2.13;0.90;;;;;;;;;;4995942;28;21014;-68
2023/10/15 14:40:07;;;;;;;1.50;0.80;;;;;;;;;;4988188;28;20837;-69
2023/10/15 14:42:34;;;;;;;1.50;0.70;;;;;;;;;;4989842;28;20480;-67
2023/10/15 14:45:01;;;;;;;1.20;0.50;;;;;;;;;;4986264;28;20523;-67
2023/10/15 14:47:29;;;;;;;1.57;0.50;;;;;;;;;;4996919;28;20449;-68
2023/10/15 14:49:57;;;;;;;1.90;0.77;;;;;;;;;;4999359;28;20444;-67
2023/10/15 14:52:24;;;;;;;1.70;0.70;;;;;;;;;;4996854;28;20461;-66
2023/10/15 14:54:51;;;;;;;1.50;0.70;;;;;;;;;;4996441;28;20491;-67